Richmond, Ohio
Current Conditions -  °F | °C
As of 4:40 PM on Thursday 27 Nov 2014 (Local Time) from KHLG Reporting Station
Overcast Overcast  
Wind Chill: -7°   Ceiling: 5000
Heat Index: -1°   Visibility: 7mi
Dew Point: -4°   Wind: 13mph
Humidity: 82%   Direction: 280°W
Pressure: 30.16"   Gusts: 20mph
Location:  40.43°N, 80.77°W
Report Text: KHLG 272140Z 28011G17KT 7SM FEW013 BKN050 OVC070 M01/M04 A3016 RMK AO2 SNE31 P0000 T10111039
Loading
Personal Weather Stations






























Interactive Weather Map New forecast layout! Learn more

10-Day Weather Forecast

Advertisements
Track Severe Weather on mobile